createdAt,value
2023-03-14T04:43:42.195Z,6.76
2023-03-14T04:46:46.851Z,6.76
2023-03-14T04:49:49.707Z,6.39
2023-03-14T04:52:52.545Z,6.37
2023-03-14T04:55:56.483Z,6.39
2023-03-14T04:58:59.563Z,6.47
2023-03-14T05:02:02.376Z,6.62
2023-03-14T05:05:05.827Z,6.74
2023-03-14T05:08:09.003Z,6.78
2023-03-14T05:11:13.199Z,6.82
2023-03-14T05:14:15.701Z,6.92
2023-03-14T05:17:19.564Z,6.98
2023-03-14T05:20:23.297Z,7.18
2023-03-14T05:23:26.537Z,7.32
2023-03-14T05:26:29.163Z,7.42
2023-03-14T05:29:32.243Z,7.59
2023-03-14T05:32:35.127Z,7.74
2023-03-14T05:35:38.015Z,7.94
2023-03-14T05:38:40.847Z,8.15
2023-03-14T05:41:44.165Z,8.24
2023-03-14T05:44:46.974Z,8.45
2023-03-14T05:47:50.220Z,8.59
2023-03-14T05:51:00.365Z,8.77
2023-03-14T05:54:03.522Z,9.01
2023-03-14T05:57:06.793Z,9.18
2023-03-14T06:00:10.342Z,9.38
2023-03-14T06:03:15.128Z,9.55
2023-03-14T06:06:18.267Z,9.76
2023-03-14T06:09:23.462Z,9.94
2023-03-14T06:12:27.031Z,10.24
2023-03-14T06:15:30.557Z,10.41
2023-03-14T06:18:33.940Z,10.44
2023-03-14T06:21:36.520Z,10.44
2023-03-14T06:24:39.239Z,10.55
2023-03-14T06:27:41.740Z,10.65
2023-03-14T06:30:44.782Z,10.70
2023-03-14T06:33:47.360Z,10.63
2023-03-14T06:36:50.300Z,10.51
2023-03-14T06:39:52.688Z,10.55
2023-03-14T06:42:55.798Z,10.65
2023-03-14T06:45:59.273Z,10.81
2023-03-14T06:49:02.381Z,10.89
2023-03-14T06:52:05.066Z,10.98
2023-03-14T06:55:09.084Z,11.00
2023-03-14T06:58:12.680Z,11.06
2023-03-14T07:01:26.326Z,11.12
2023-03-14T07:04:29.391Z,11.26
2023-03-14T07:07:32.219Z,11.31
2023-03-14T07:10:36.397Z,11.43
2023-03-14T07:13:40.281Z,11.56
2023-03-14T07:16:42.964Z,11.72
2023-03-14T07:19:46.273Z,11.93
2023-03-14T07:22:52.078Z,12.09
2023-03-14T07:25:55.498Z,12.38
2023-03-14T07:28:58.862Z,12.56
2023-03-14T07:32:02.638Z,12.68
2023-03-14T07:35:05.648Z,13.09
2023-03-14T07:38:11.298Z,13.79
2023-03-14T07:41:14.939Z,15.65
2023-03-14T07:44:17.949Z,16.35
2023-03-14T07:47:20.787Z,16.18
2023-03-14T07:50:27.976Z,16.07
2023-03-14T07:53:30.463Z,16.10
2023-03-14T07:56:33.279Z,16.01
2023-03-14T07:59:35.665Z,15.85
2023-03-14T08:02:38.634Z,15.66
2023-03-14T08:05:43.092Z,16.23
2023-03-14T08:08:45.621Z,16.90
2023-03-14T08:11:48.671Z,17.55
2023-03-14T08:14:51.276Z,17.26
2023-03-14T08:17:54.885Z,17.47
2023-03-14T08:20:59.684Z,16.87
2023-03-14T08:24:02.437Z,17.12
2023-03-14T08:27:06.167Z,17.10
2023-03-14T08:30:16.021Z,17.14
2023-03-14T08:33:18.508Z,18.18
2023-03-14T08:36:23.794Z,19.40
2023-03-14T08:39:26.575Z,19.78
2023-03-14T08:42:29.272Z,21.08
2023-03-14T08:45:31.835Z,23.49
2023-03-14T08:48:34.515Z,23.56
2023-03-14T08:51:36.967Z,23.74
2023-03-14T08:54:39.600Z,24.14
2023-03-14T08:57:42.057Z,27.03
2023-03-14T09:00:45.003Z,29.27
2023-03-14T09:03:49.191Z,30.09
2023-03-14T09:06:52.768Z,26.59
2023-03-14T09:09:55.494Z,27.97
2023-03-14T09:12:59.234Z,27.88
2023-03-14T09:16:02.027Z,27.82
2023-03-14T09:19:04.831Z,25.51
2023-03-14T09:22:07.227Z,22.63
2023-03-14T09:25:10.721Z,19.61
2023-03-14T09:28:14.044Z,19.18
2023-03-14T09:31:17.243Z,18.69
2023-03-14T09:34:20.062Z,17.78
2023-03-14T09:37:22.731Z,17.38
2023-03-14T09:40:26.116Z,17.29
2023-03-14T09:43:32.543Z,17.54
2023-03-14T09:46:37.585Z,17.63
2023-03-14T09:49:41.557Z,17.76
2023-03-14T09:52:49.205Z,17.76
2023-03-14T09:55:53.312Z,18.17
2023-03-14T09:59:06.493Z,18.22
2023-03-14T10:02:35.600Z,18.26
2023-03-14T10:05:39.143Z,18.13
2023-03-14T10:08:46.234Z,18.02
2023-03-14T10:11:49.030Z,18.11
2023-03-14T10:14:54.784Z,18.52
2023-03-14T10:18:00.732Z,19.02
2023-03-14T10:21:25.290Z,19.70
2023-03-14T10:24:29.860Z,20.10
2023-03-14T10:27:34.974Z,20.39
2023-03-14T10:30:48.113Z,20.68
2023-03-14T10:34:05.998Z,20.82
2023-03-14T10:37:26.564Z,20.63
2023-03-14T10:40:33.137Z,20.36
2023-03-14T10:43:37.219Z,20.18
2023-03-14T10:46:39.760Z,20.16
2023-03-14T10:49:58.370Z,20.10
2023-03-14T10:53:07.531Z,20.41
2023-03-14T10:56:19.507Z,20.13
2023-03-14T10:59:25.469Z,20.38
2023-03-14T11:02:48.549Z,20.38
2023-03-14T11:05:55.247Z,20.39
2023-03-14T11:09:19.703Z,20.57
2023-03-14T11:12:42.124Z,20.54
2023-03-14T11:16:07.064Z,20.34
2023-03-14T11:19:56.016Z,20.06
2023-03-14T11:23:14.645Z,20.24
2023-03-14T11:26:26.345Z,20.56
2023-03-14T11:29:41.839Z,20.74
2023-03-14T11:33:02.753Z,20.50
2023-03-14T11:36:12.807Z,20.35
2023-03-14T11:39:18.093Z,20.31
2023-03-14T11:42:22.920Z,20.12
2023-03-14T11:45:46.227Z,20.12
2023-03-14T11:49:04.486Z,20.23
2023-03-14T11:52:15.720Z,20.81
2023-03-14T11:55:26.928Z,20.92
2023-03-14T11:58:36.596Z,20.72
2023-03-14T12:01:58.579Z,20.93
2023-03-14T12:05:35.394Z,20.97
2023-03-14T12:08:51.425Z,21.14
2023-03-14T12:11:59.180Z,21.00
2023-03-14T12:15:04.095Z,21.03
2023-03-14T12:18:22.033Z,21.18
2023-03-14T12:21:45.130Z,21.28
2023-03-14T12:24:55.289Z,21.58
2023-03-14T12:27:57.647Z,21.75
2023-03-14T12:31:32.437Z,21.28
2023-03-14T12:34:43.343Z,20.87
2023-03-14T12:37:49.422Z,20.79
2023-03-14T12:41:04.883Z,21.12
2023-03-14T12:44:30.504Z,21.40
2023-03-14T12:47:32.956Z,21.22
2023-03-14T12:50:44.232Z,20.93
2023-03-14T12:53:52.604Z,20.66
2023-03-14T12:57:09.276Z,20.55
2023-03-14T13:00:44.118Z,20.55
2023-03-14T13:03:54.478Z,20.46
2023-03-14T13:07:02.808Z,20.35
2023-03-14T13:10:16.764Z,20.21
2023-03-14T13:13:29.932Z,19.94
2023-03-14T13:16:37.395Z,19.87
2023-03-14T13:19:40.306Z,19.67
2023-03-14T13:22:48.848Z,19.65
2023-03-14T13:25:51.793Z,19.52
2023-03-14T13:28:54.813Z,19.44
2023-03-14T13:31:59.995Z,19.33
2023-03-14T13:35:02.790Z,19.18
2023-03-14T13:38:12.010Z,19.01
2023-03-14T13:41:15.446Z,18.98
2023-03-14T13:44:39.238Z,18.93
2023-03-14T13:47:42.077Z,18.82
2023-03-14T13:50:53.155Z,18.85
2023-03-14T13:53:56.632Z,18.97
2023-03-14T13:57:03.985Z,18.92
2023-03-14T14:00:11.050Z,18.80
2023-03-14T14:03:16.281Z,18.82
2023-03-14T14:06:31.100Z,18.85
2023-03-14T14:09:40.477Z,18.83
2023-03-14T14:13:03.994Z,18.79
2023-03-14T14:16:07.566Z,18.78
2023-03-14T14:19:11.029Z,18.82
2023-03-14T14:22:14.324Z,18.84
2023-03-14T14:25:17.146Z,18.91
2023-03-14T14:28:26.285Z,19.03
2023-03-14T14:31:28.737Z,19.10
2023-03-14T14:34:40.394Z,19.14
2023-03-14T14:37:44.593Z,19.11
2023-03-14T14:40:51.630Z,19.11
2023-03-14T14:43:53.994Z,19.09
2023-03-14T14:46:59.900Z,19.04
2023-03-14T14:50:06.370Z,19.00
2023-03-14T14:53:36.579Z,18.97
2023-03-14T14:56:39.016Z,18.97
2023-03-14T14:59:45.339Z,18.88
2023-03-14T15:02:53.490Z,18.88
2023-03-14T15:05:57.691Z,18.87
2023-03-14T15:09:00.116Z,18.78
2023-03-14T15:12:02.908Z,18.76
2023-03-14T15:15:06.617Z,18.63
2023-03-14T15:18:19.471Z,18.44
2023-03-14T15:21:21.942Z,18.36
2023-03-14T15:24:24.567Z,18.23
2023-03-14T15:27:29.585Z,18.16
2023-03-14T15:30:32.322Z,18.11
2023-03-14T15:33:34.841Z,18.01
2023-03-14T15:36:38.636Z,17.95
2023-03-14T15:39:42.861Z,17.84
2023-03-14T15:42:45.972Z,17.73
2023-03-14T15:45:48.589Z,17.62
2023-03-14T15:48:52.638Z,17.58
2023-03-14T15:51:57.427Z,17.53
2023-03-14T15:55:01.102Z,17.31
2023-03-14T15:58:03.521Z,16.93
2023-03-14T16:01:09.651Z,16.51
2023-03-14T16:04:12.451Z,16.29
2023-03-14T16:07:14.880Z,15.81
2023-03-14T16:10:19.956Z,15.48
2023-03-14T16:13:22.459Z,15.15
2023-03-14T16:16:25.417Z,14.96
2023-03-14T16:19:28.252Z,14.68
2023-03-14T16:22:35.787Z,14.41
2023-03-14T16:25:38.103Z,14.27
2023-03-14T16:28:41.294Z,14.18
2023-03-14T16:31:43.839Z,14.11
2023-03-14T16:34:46.631Z,14.06
2023-03-14T16:37:49.069Z,14.04
2023-03-14T16:41:14.135Z,14.05
2023-03-14T16:44:16.695Z,13.99
